Time;durP1;ratioP1;P1;durP2;ratioP2;P2;SDS_P1;SDS_P2;PMS_P1;PMS_P2;Temp;Humidity;BMP_temperature;BMP_pressure;BME280_temperature;BME280_humidity;BME280_pressure;Samples;Min_cycle;Max_cycle;Signal;HPM_P1;HPM_P2
2021/01/17 00:01:04;;;;;;;13.70;6.03;;;;;;;-2.68;68.43;100373.47;5030106;28;20463;-67
2021/01/17 00:03:30;;;;;;;10.77;5.93;;;;;;;-2.60;68.23;100392.69;5004132;28;20434;-68
2021/01/17 00:05:56;;;;;;;12.17;6.03;;;;;;;-2.62;67.41;100390.78;5029949;28;20060;-68
2021/01/17 00:08:22;;;;;;;10.07;5.77;;;;;;;-2.56;67.89;100398.03;5029994;28;20053;-68
2021/01/17 00:10:48;;;;;;;11.93;6.70;;;;;;;-2.66;67.67;100402.28;5033922;28;20072;-72
2021/01/17 00:13:15;;;;;;;27.10;11.90;;;;;;;-2.69;67.92;100383.41;5033737;28;20025;-69
2021/01/17 00:15:40;;;;;;;13.20;6.87;;;;;;;-2.83;67.54;100365.44;5034260;28;20463;-68
2021/01/17 00:18:07;;;;;;;12.83;6.23;;;;;;;-2.54;67.83;100412.59;5015535;28;20041;-68
2021/01/17 00:20:33;;;;;;;9.77;5.20;;;;;;;-2.40;66.47;100416.31;5033670;28;20426;-68
2021/01/17 00:23:06;;;;;;;14.20;6.27;;;;;;;-2.44;66.79;100420.22;5033503;28;20021;-68
2021/01/17 00:25:33;;;;;;;10.23;5.60;;;;;;;-2.50;66.21;100419.69;5033771;28;20029;-69
2021/01/17 00:27:59;;;;;;;12.87;6.10;;;;;;;-2.59;67.04;100429.00;5033744;28;20083;-68
2021/01/17 00:30:28;;;;;;;11.00;6.37;;;;;;;-2.41;67.38;100424.66;5033463;28;20025;-68
2021/01/17 00:32:55;;;;;;;10.10;5.93;;;;;;;-2.22;66.68;100422.06;5033875;28;20079;-68
2021/01/17 00:35:25;;;;;;;10.90;6.20;;;;;;;-2.17;66.04;100419.97;5033706;28;20033;-68
2021/01/17 00:37:58;;;;;;;12.20;6.70;;;;;;;-2.18;65.39;100424.13;5033126;28;20057;-68
2021/01/17 00:40:24;;;;;;;10.53;5.90;;;;;;;-2.17;65.38;100437.66;5033851;28;20025;-68
2021/01/17 00:42:51;;;;;;;12.50;7.27;;;;;;;-2.08;66.14;100441.00;4996687;28;20175;-68
2021/01/17 00:45:17;;;;;;;22.53;9.27;;;;;;;-2.20;65.68;100428.16;5033099;28;20029;-68
2021/01/17 00:47:51;;;;;;;61.37;16.57;;;;;;;-2.12;60.53;100444.91;5033345;28;20462;-68
2021/01/17 00:50:20;;;;;;;9.13;5.40;;;;;;;-2.08;59.25;100445.16;5032476;28;20029;-68
2021/01/17 00:52:50;;;;;;;8.90;5.07;;;;;;;-2.07;59.37;100442.75;5015765;28;20026;-67
2021/01/17 00:55:15;;;;;;;8.67;4.50;;;;;;;-2.02;59.03;100435.56;5033202;28;20561;-68
2021/01/17 00:57:40;;;;;;;8.33;4.60;;;;;;;-2.03;59.05;100456.56;5030856;28;20025;-67
2021/01/17 01:00:10;;;;;;;10.70;5.57;;;;;;;-2.32;62.56;100460.88;5033119;28;20029;-68
2021/01/17 01:02:41;;;;;;;9.77;5.63;;;;;;;-2.46;64.54;100452.03;5032889;28;20064;-68
2021/01/17 01:05:07;;;;;;;10.27;5.53;;;;;;;-2.53;65.30;100457.34;5033319;28;20116;-68
2021/01/17 01:07:33;;;;;;;10.77;6.40;;;;;;;-2.56;65.96;100446.94;5033350;28;20028;-68
2021/01/17 01:09:58;;;;;;;11.10;5.93;;;;;;;-2.64;65.70;100466.47;5032630;28;20017;-68
2021/01/17 01:12:24;;;;;;;11.20;6.40;;;;;;;-2.58;66.00;100460.19;5033041;28;20483;-68
2021/01/17 01:14:49;;;;;;;12.70;6.90;;;;;;;-2.81;66.18;100421.13;5032624;28;20498;-68
2021/01/17 01:17:15;;;;;;;118.77;32.77;;;;;;;-2.40;65.48;100479.53;5032637;28;20091;-68
2021/01/17 01:19:41;;;;;;;45.53;15.97;;;;;;;-2.19;65.52;100462.81;5032688;28;20431;-68
2021/01/17 01:22:06;;;;;;;13.30;7.27;;;;;;;-1.91;63.16;100471.94;5031985;28;20045;-69
2021/01/17 01:24:32;;;;;;;12.87;8.07;;;;;;;-1.83;63.41;100473.50;5032711;28;20044;-69
2021/01/17 01:26:57;;;;;;;13.33;6.60;;;;;;;-1.82;62.53;100455.00;4997490;28;20037;-69
2021/01/17 01:29:23;;;;;;;13.20;5.90;;;;;;;-2.04;62.15;100455.69;5032381;28;20475;-69
2021/01/17 01:31:49;;;;;;;14.33;6.27;;;;;;;-2.00;62.55;100462.78;5030215;28;20060;-65
2021/01/17 01:34:14;;;;;;;11.10;6.40;;;;;;;-2.21;63.02;100465.97;5032529;28;20166;-67
2021/01/17 01:36:43;;;;;;;11.87;6.30;;;;;;;-2.51;63.67;100449.88;5031904;28;20029;-67
2021/01/17 01:39:10;;;;;;;10.93;5.80;;;;;;;-2.31;63.90;100470.22;5032591;28;20025;-67
2021/01/17 01:41:38;;;;;;;9.80;5.77;;;;;;;-2.20;63.87;100460.16;5032757;28;20272;-67
2021/01/17 01:44:04;;;;;;;10.43;6.20;;;;;;;-2.09;63.18;100458.56;5032294;28;20471;-68
2021/01/17 01:46:31;;;;;;;11.93;6.20;;;;;;;-2.12;63.61;100442.38;5032221;28;20022;-67
2021/01/17 01:48:59;;;;;;;10.73;6.40;;;;;;;-2.00;63.44;100464.44;5031905;28;20043;-68
2021/01/17 01:51:25;;;;;;;62.70;20.60;;;;;;;-1.94;62.01;100464.97;5032416;28;20029;-67
2021/01/17 01:53:52;;;;;;;11.03;6.43;;;;;;;-1.93;61.33;100464.22;5031936;28;20056;-67
2021/01/17 01:56:18;;;;;;;11.67;5.73;;;;;;;-1.87;61.88;100467.28;5031945;28;20451;-67
2021/01/17 01:58:43;;;;;;;11.77;5.90;;;;;;;-1.96;62.21;100461.41;5031791;28;20057;-66
2021/01/17 02:01:09;;;;;;;11.13;6.07;;;;;;;-1.84;63.05;100477.66;5031771;28;20083;-67
2021/01/17 02:03:35;;;;;;;10.83;6.73;;;;;;;-1.99;62.30;100477.22;5031615;28;20048;-67
2021/01/17 02:06:02;;;;;;;9.57;5.60;;;;;;;-2.07;62.56;100477.28;5032305;28;20147;-68
2021/01/17 02:08:55;;;;;;;11.13;6.37;;;;;;;-1.97;63.04;100477.34;5032202;28;20021;-69
2021/01/17 02:11:57;;;;;;;11.63;6.67;;;;;;;-2.00;65.40;100477.09;5013281;28;20057;-68
2021/01/17 02:14:28;;;;;;;12.43;6.77;;;;;;;-1.89;67.03;100470.44;5029045;28;20028;-68
2021/01/17 02:16:55;;;;;;;14.50;7.43;;;;;;;-1.89;68.47;100478.03;5030617;28;20061;-64
2021/01/17 02:19:27;;;;;;;23.73;11.87;;;;;;;-2.08;69.14;100438.47;5031503;28;20542;-67
2021/01/17 02:21:58;;;;;;;19.43;9.03;;;;;;;-1.96;69.99;100485.06;5031246;28;20045;-67
2021/01/17 02:24:32;;;;;;;28.13;12.47;;;;;;;-2.27;69.98;100448.59;5031770;28;20025;-68
2021/01/17 02:26:59;;;;;;;19.63;13.17;;;;;;;-1.96;69.41;100479.13;5031346;28;20044;-69
2021/01/17 02:29:27;;;;;;;43.40;36.33;;;;;;;-1.84;70.15;100482.72;5031526;28;20029;-69
2021/01/17 02:31:57;;;;;;;16.37;11.80;;;;;;;-1.89;70.01;100471.31;5031370;28;20025;-69
2021/01/17 02:34:24;;;;;;;14.77;9.60;;;;;;;-1.83;69.99;100488.69;5030830;28;20048;-69
2021/01/17 02:37:04;;;;;;;13.60;8.87;;;;;;;-2.07;70.54;100449.47;5031142;28;20104;-69
2021/01/17 02:39:47;;;;;;;12.55;7.55;;;;;;;-1.95;70.84;100473.31;5029800;28;20035;-69
2021/01/17 02:42:15;;;;;;;10.27;6.43;;;;;;;-1.88;69.07;100493.31;5031378;28;20056;-69
2021/01/17 02:44:42;;;;;;;14.70;7.60;;;;;;;-1.88;69.95;100505.06;5030933;28;20033;-69
2021/01/17 02:47:08;;;;;;;13.00;7.83;;;;;;;-1.91;70.33;100503.16;5030875;28;20418;-69
2021/01/17 02:49:33;;;;;;;14.03;8.20;;;;;;;-1.87;70.47;100501.78;5013585;28;20029;-69
2021/01/17 02:52:05;;;;;;;14.13;7.43;;;;;;;-1.83;69.56;100496.25;5029717;28;20072;-69
2021/01/17 02:54:34;;;;;;;13.00;7.43;;;;;;;-1.72;69.95;100502.22;5031046;28;20033;-69
2021/01/17 02:57:05;;;;;;;12.75;7.97;;;;;;;-1.66;70.18;100503.66;5030917;28;20022;-69
2021/01/17 02:59:54;;;;;;;17.10;10.63;;;;;;;-1.60;69.83;100498.22;5030790;28;20115;-69
2021/01/17 03:02:26;;;;;;;16.33;9.45;;;;;;;-1.88;70.74;100505.97;5030707;28;20179;-69
2021/01/17 03:04:58;;;;;;;18.63;9.57;;;;;;;-2.31;72.30;100505.63;5030883;28;20030;-69
2021/01/17 03:07:24;;;;;;;15.67;9.47;;;;;;;-2.22;72.81;100518.19;5030556;28;20021;-69
2021/01/17 03:09:50;;;;;;;17.50;10.03;;;;;;;-2.09;72.69;100509.16;5030219;28;20037;-69
2021/01/17 03:12:15;;;;;;;16.83;10.07;;;;;;;-1.95;71.71;100509.59;5015485;28;20498;-69
2021/01/17 03:14:43;;;;;;;21.20;9.87;;;;;;;-1.77;71.99;100503.47;5030410;28;20025;-71
2021/01/17 03:17:09;;;;;;;17.73;9.10;;;;;;;-1.86;71.38;100512.03;5030738;28;20032;-69
2021/01/17 03:19:35;;;;;;;18.67;9.33;;;;;;;-2.11;71.71;100471.06;5030214;28;20033;-69
2021/01/17 03:22:01;;;;;;;18.23;9.33;;;;;;;-2.03;71.15;100509.69;5030595;28;20045;-68
2021/01/17 03:24:27;;;;;;;21.33;10.43;;;;;;;-2.53;72.43;100442.19;5030179;28;20108;-70
2021/01/17 03:26:53;;;;;;;19.17;9.93;;;;;;;-2.46;73.08;100473.94;5030518;28;20120;-69
2021/01/17 03:29:19;;;;;;;21.07;10.23;;;;;;;-2.19;72.84;100513.41;5030410;28;20112;-69
2021/01/17 03:31:44;;;;;;;15.77;9.30;;;;;;;-2.21;72.94;100504.78;5030285;28;20026;-69
2021/01/17 03:34:10;;;;;;;19.00;10.67;;;;;;;-2.37;73.71;100512.66;5030661;28;20029;-70
2021/01/17 03:36:36;;;;;;;16.90;10.27;;;;;;;-2.16;74.15;100507.72;5030478;28;20143;-69
2021/01/17 03:39:02;;;;;;;18.33;11.10;;;;;;;-2.07;73.04;100507.66;5029697;28;20064;-69
2021/01/17 03:41:28;;;;;;;16.10;9.57;;;;;;;-2.01;72.43;100504.00;4979197;28;20029;-68
2021/01/17 03:43:53;;;;;;;18.30;9.90;;;;;;;-1.91;71.37;100504.81;5029844;28;20372;-69
2021/01/17 03:46:19;;;;;;;15.70;10.03;;;;;;;-1.76;71.42;100508.66;5030654;28;20080;-68
2021/01/17 03:48:44;;;;;;;17.93;10.17;;;;;;;-2.56;71.27;100413.22;5030151;28;20032;-68
2021/01/17 03:51:10;;;;;;;19.33;10.23;;;;;;;-2.01;72.27;100508.19;5030438;28;20034;-69
2021/01/17 03:53:35;;;;;;;19.50;11.53;;;;;;;-2.02;71.42;100504.78;5029766;28;20392;-69
2021/01/17 03:56:01;;;;;;;21.73;13.00;;;;;;;-2.21;71.39;100471.03;5030618;28;20067;-68
2021/01/17 03:58:26;;;;;;;24.03;12.30;;;;;;;-2.35;71.94;100478.28;5030175;28;20018;-69
2021/01/17 04:00:52;;;;;;;16.87;10.13;;;;;;;-2.19;71.54;100528.59;5029976;28;20017;-68
2021/01/17 04:03:18;;;;;;;17.27;9.67;;;;;;;-2.41;71.16;100490.38;5030572;28;20562;-72
2021/01/17 04:05:43;;;;;;;16.73;10.07;;;;;;;-2.30;70.58;100522.56;5029927;28;20068;-68
2021/01/17 04:08:09;;;;;;;19.57;10.37;;;;;;;-2.30;70.65;100525.09;5030022;28;20018;-69
2021/01/17 04:10:34;;;;;;;17.23;9.80;;;;;;;-2.39;71.61;100530.97;5030076;28;20033;-68
2021/01/17 04:13:00;;;;;;;18.30;9.30;;;;;;;-2.54;71.58;100533.91;5030117;28;20018;-69
2021/01/17 04:15:25;;;;;;;20.43;11.37;;;;;;;-2.65;71.46;100527.88;5030283;28;20464;-69
2021/01/17 04:17:51;;;;;;;17.20;9.70;;;;;;;-2.63;71.93;100535.59;5029852;28;20431;-69
2021/01/17 04:20:16;;;;;;;19.73;10.47;;;;;;;-2.64;72.88;100533.84;5027381;28;20079;-68
2021/01/17 04:22:42;;;;;;;18.03;10.47;;;;;;;-2.67;73.03;100542.00;5029327;28;20088;-68
2021/01/17 04:25:08;;;;;;;15.50;9.73;;;;;;;-2.78;73.17;100533.47;5029838;28;20025;-68
2021/01/17 04:27:34;;;;;;;18.93;9.77;;;;;;;-2.86;73.64;100538.59;5029989;28;20045;-68
2021/01/17 04:29:59;;;;;;;18.83;10.23;;;;;;;-2.88;73.92;100538.41;5030050;28;20029;-68
2021/01/17 04:32:25;;;;;;;17.97;10.87;;;;;;;-2.94;73.79;100530.28;5029798;28;20079;-68
2021/01/17 04:34:51;;;;;;;16.90;10.47;;;;;;;-2.77;73.94;100540.31;5029993;28;20025;-68
2021/01/17 04:37:24;;;;;;;16.87;10.53;;;;;;;-2.79;73.26;100531.69;5027079;28;20105;-68
2021/01/17 04:39:51;;;;;;;16.93;9.07;;;;;;;-2.78;73.26;100548.63;5029982;28;20029;-68
2021/01/17 04:42:20;;;;;;;19.50;10.53;;;;;;;-3.13;72.80;100507.50;5030844;28;20025;-68
2021/01/17 04:44:53;;;;;;;18.35;10.30;;;;;;;-2.99;72.56;100561.81;5026851;28;20172;-71
2021/01/17 04:47:20;;;;;;;17.90;10.73;;;;;;;-3.02;70.99;100557.38;5012478;28;20112;-69
2021/01/17 04:49:51;;;;;;;17.90;10.17;;;;;;;-2.95;71.35;100551.25;5029018;28;20033;-70
2021/01/17 04:52:20;;;;;;;18.13;9.17;;;;;;;-2.96;71.75;100560.47;5015644;28;20026;-70
2021/01/17 04:54:46;;;;;;;15.60;9.10;;;;;;;-2.91;70.07;100555.84;5011146;28;20054;-70
2021/01/17 04:57:38;;;;;;;23.03;11.80;;;;;;;-2.77;74.21;100559.63;5014188;28;20056;-71
2021/01/17 05:00:06;;;;;;;16.47;9.13;;;;;;;-2.69;69.15;100560.31;5014335;28;20626;-71
2021/01/17 05:02:51;;;;;;;18.47;9.13;;;;;;;-2.62;68.39;100555.06;5017738;28;20033;-70
2021/01/17 05:05:22;;;;;;;18.13;10.63;;;;;;;-2.74;68.81;100538.78;5033472;28;20177;-65
2021/01/17 05:08:11;;;;;;;19.33;11.20;;;;;;;-2.76;70.00;100562.28;5033570;28;20484;-67
2021/01/17 05:10:38;;;;;;;;;;;;;;;-2.69;68.19;100560.31;5033085;28;20083;-67
2021/01/17 05:13:10;;;;;;;41.67;22.80;;;;;;;-2.67;67.60;100567.28;5033892;28;20398;-70
2021/01/17 05:15:41;;;;;;;65.03;34.37;;;;;;;-2.77;67.11;100552.03;5033762;28;20087;-69
2021/01/17 05:18:08;;;;;;;35.23;19.27;;;;;;;-2.77;65.74;100531.81;5033693;28;20578;-69
2021/01/17 05:20:33;;;;;;;18.27;9.37;;;;;;;-2.64;63.01;100571.75;5033438;28;20021;-68
2021/01/17 05:22:59;;;;;;;14.40;9.00;;;;;;;-3.02;62.94;100551.44;4998188;28;20393;-68
2021/01/17 05:25:28;;;;;;;14.93;8.27;;;;;;;-2.97;62.19;100570.44;5011258;28;20081;-68
2021/01/17 05:27:55;;;;;;;13.77;8.63;;;;;;;-3.12;62.25;100570.78;4978499;28;20038;-68
2021/01/17 05:30:21;;;;;;;15.33;8.27;;;;;;;-3.52;63.35;100526.69;4992622;28;20023;-67
2021/01/17 05:32:52;;;;;;;15.60;8.47;;;;;;;-3.33;63.51;100571.31;4991833;28;20035;-66
2021/01/17 05:35:19;;;;;;;19.10;9.20;;;;;;;-3.44;63.67;100581.31;4991788;28;20037;-66
2021/01/17 05:37:52;;;;;;;17.40;8.30;;;;;;;-3.79;63.45;100538.50;5006689;28;20038;-68
2021/01/17 05:40:19;;;;;;;15.93;8.57;;;;;;;-3.77;63.21;100538.63;5011321;28;20026;-66
2021/01/17 05:42:46;;;;;;;26.70;8.97;;;;;;;-3.58;63.71;100574.03;5011181;28;20052;-66
2021/01/17 05:45:13;;;;;;;16.80;8.73;;;;;;;-3.44;64.22;100580.41;5011235;28;20034;-66
2021/01/17 05:47:51;;;;;;;16.63;8.87;;;;;;;-3.35;64.10;100587.94;5011031;28;20200;-65
2021/01/17 05:50:17;;;;;;;16.53;8.33;;;;;;;-3.70;62.52;100571.28;5010805;28;20072;-65
2021/01/17 05:52:43;;;;;;;18.13;8.97;;;;;;;-3.85;63.83;100578.25;5011350;28;20038;-65
2021/01/17 05:55:15;;;;;;;20.00;9.03;;;;;;;-3.86;62.27;100588.19;5032507;28;20473;-67
2021/01/17 05:57:40;;;;;;;15.67;9.17;;;;;;;-3.82;62.95;100587.75;5032993;28;20115;-65
2021/01/17 06:00:06;;;;;;;16.70;8.57;;;;;;;-3.69;64.07;100583.09;5032702;28;20060;-67
2021/01/17 06:02:32;;;;;;;16.77;9.00;;;;;;;-3.65;64.21;100576.72;5033118;28;20029;-67
2021/01/17 06:05:02;;;;;;;15.83;8.90;;;;;;;-3.59;63.56;100585.78;5032728;28;20032;-66
2021/01/17 06:07:30;;;;;;;15.10;8.30;;;;;;;-3.76;62.80;100590.88;5032589;28;20024;-69
2021/01/17 06:09:58;;;;;;;15.70;8.80;;;;;;;-3.72;62.31;100584.47;5032893;28;20462;-67
2021/01/17 06:12:30;;;;;;;13.50;7.93;;;;;;;-3.60;63.29;100580.56;5014904;28;20491;-68
2021/01/17 06:15:07;;;;;;;17.47;10.73;;;;;;;-3.32;61.92;100591.66;5032692;28;20032;-70
2021/01/17 06:17:35;;;;;;;27.67;13.53;;;;;;;-3.33;61.75;100591.50;5026488;28;20030;-71
2021/01/17 06:20:02;;;;;;;18.43;9.60;;;;;;;-3.30;62.22;100597.75;5031265;28;20514;-71
2021/01/17 06:22:29;;;;;;;15.27;8.67;;;;;;;-3.60;61.51;100546.16;5029633;28;20046;-71
2021/01/17 06:24:59;;;;;;;18.13;9.73;;;;;;;-3.43;62.37;100570.47;5031765;28;20025;-70
2021/01/17 06:27:26;;;;;;;15.53;8.73;;;;;;;-3.57;61.86;100583.41;5031711;28;20494;-68
2021/01/17 06:29:53;;;;;;;17.80;10.23;;;;;;;-3.75;63.57;100572.44;5031880;28;20111;-68
2021/01/17 06:32:21;;;;;;;17.57;9.20;;;;;;;-3.58;62.41;100592.63;5031331;28;20026;-65
2021/01/17 06:34:50;;;;;;;17.90;9.33;;;;;;;-3.79;62.30;100601.56;5031242;28;20029;-66
2021/01/17 06:37:17;;;;;;;16.77;8.95;;;;;;;-3.88;63.48;100599.78;5031154;28;20392;-66
2021/01/17 06:39:50;;;;;;;19.00;9.27;;;;;;;-4.09;63.87;100559.13;5032006;28;20108;-66
2021/01/17 06:42:18;;;;;;;16.40;8.93;;;;;;;-4.00;63.52;100564.16;5031580;28;20395;-67
2021/01/17 06:44:44;;;;;;;18.27;10.97;;;;;;;-3.46;62.25;100602.97;5030159;28;20025;-68
2021/01/17 06:47:28;;;;;;;15.90;9.70;;;;;;;-3.65;62.31;100585.22;5030387;28;20094;-68
2021/01/17 06:49:55;;;;;;;13.57;8.33;;;;;;;-3.61;62.09;100619.19;5030053;28;20029;-66
2021/01/17 06:52:22;;;;;;;16.60;9.37;;;;;;;-3.61;62.73;100601.53;5030576;28;20067;-69
2021/01/17 06:54:48;;;;;;;28.90;15.77;;;;;;;-3.68;62.94;100536.97;5029545;28;20496;-68
2021/01/17 06:57:14;;;;;;;56.70;28.03;;;;;;;-3.30;61.45;100617.94;5031106;28;20068;-69
2021/01/17 06:59:42;;;;;;;17.37;9.80;;;;;;;-3.38;62.29;100625.53;5030377;28;20083;-69
2021/01/17 07:02:16;;;;;;;16.60;9.07;;;;;;;-3.52;63.90;100629.28;5030913;28;20029;-68
2021/01/17 07:05:00;;;;;;;18.53;8.93;;;;;;;-3.56;63.92;100623.03;5012020;28;20507;-69
2021/01/17 07:07:59;;;;;;;15.67;8.57;;;;;;;-3.65;63.61;100624.66;5012145;28;20115;-69
2021/01/17 07:10:25;;;;;;;20.55;8.55;;;;;;;-4.10;62.95;100575.91;5029492;28;20071;-66
2021/01/17 07:13:05;;;;;;;17.50;8.90;;;;;;;-3.72;63.24;100635.81;5030166;28;20061;-67
2021/01/17 07:15:42;;;;;;;21.13;11.37;;;;;;;-3.52;64.46;100631.78;5011938;28;20033;-69
2021/01/17 07:18:07;;;;;;;16.10;8.07;;;;;;;-3.57;63.92;100629.69;5030018;28;20060;-69
2021/01/17 07:20:49;;;;;;;14.83;8.77;;;;;;;-3.40;64.33;100625.41;5029370;28;20060;-70
2021/01/17 07:23:16;;;;;;;18.43;9.40;;;;;;;-3.39;63.08;100611.13;5010308;28;20042;-68
2021/01/17 07:25:44;;;;;;;11.17;6.47;;;;;;;-3.65;61.95;100627.19;5009838;28;20583;-68
2021/01/17 07:28:17;;;;;;;16.33;9.23;;;;;;;-3.80;63.79;100632.56;5011343;28;20036;-69
2021/01/17 07:30:49;;;;;;;19.23;9.93;;;;;;;-3.73;63.13;100636.56;5009743;28;20044;-70
2021/01/17 07:33:26;;;;;;;15.30;9.00;;;;;;;-4.09;64.01;100590.28;5011040;28;20049;-69
2021/01/17 07:35:54;;;;;;;14.63;6.80;;;;;;;-4.02;63.44;100581.69;5010758;28;20041;-67
2021/01/17 07:38:28;;;;;;;13.93;7.30;;;;;;;-4.01;63.46;100583.47;5009158;28;20037;-69
2021/01/17 07:40:57;;;;;;;15.77;7.93;;;;;;;-3.52;63.76;100622.56;5009787;28;20045;-66
2021/01/17 07:43:28;;;;;;;18.13;9.35;;;;;;;-3.50;62.85;100592.44;5011637;28;20025;-67
2021/01/17 07:45:57;;;;;;;18.77;10.07;;;;;;;-3.15;62.16;100607.50;5011166;28;20038;-68
2021/01/17 07:48:23;;;;;;;16.50;8.43;;;;;;;-2.98;61.43;100620.06;5011329;28;20022;-69
2021/01/17 07:50:55;;;;;;;16.57;9.10;;;;;;;-2.56;61.02;100615.41;5010756;28;20112;-68
2021/01/17 07:53:36;;;;;;;19.63;9.27;;;;;;;-2.55;60.48;100617.19;5010960;28;20028;-67
2021/01/17 07:56:24;;;;;;;15.23;8.33;;;;;;;-2.70;59.86;100619.22;5006228;28;20124;-67
2021/01/17 07:58:52;;;;;;;14.73;7.33;;;;;;;-2.73;59.15;100621.44;5011182;28;20523;-67
2021/01/17 08:01:36;;;;;;;14.20;7.70;;;;;;;-2.72;58.97;100625.75;5011319;28;20388;-69
2021/01/17 08:04:01;;;;;;;14.33;7.47;;;;;;;-2.80;59.95;100628.44;5010888;28;20042;-67
2021/01/17 08:06:35;;;;;;;18.83;10.40;;;;;;;-2.59;58.67;100626.13;5010924;28;20026;-68
2021/01/17 08:09:01;;;;;;;12.77;8.17;;;;;;;-2.82;59.49;100629.06;5011038;28;20026;-68
2021/01/17 08:11:45;;;;;;;13.00;7.37;;;;;;;-2.91;60.72;100629.09;5011221;28;20033;-68
2021/01/17 08:14:29;;;;;;;17.50;10.47;;;;;;;-2.73;60.97;100631.53;5004374;28;20030;-68
2021/01/17 08:17:10;;;;;;;25.07;15.83;;;;;;;-2.73;59.66;100629.91;5011188;28;20056;-66
2021/01/17 08:19:36;;;;;;;13.03;7.37;;;;;;;-2.62;58.18;100620.78;5010993;28;20048;-68
2021/01/17 08:22:17;;;;;;;16.40;9.80;;;;;;;-2.36;58.33;100632.41;5021685;28;20046;-68
2021/01/17 08:24:43;;;;;;;25.40;15.47;;;;;;;-2.46;57.38;100618.91;5030486;28;20561;-68
2021/01/17 08:27:09;;;;;;;20.33;11.50;;;;;;;-2.54;56.96;100614.81;5030417;28;20408;-68
2021/01/17 08:30:02;;;;;;;17.17;8.83;;;;;;;-2.34;56.41;100639.38;5031126;28;20045;-68
2021/01/17 08:32:31;;;;;;;29.07;15.03;;;;;;;-2.26;55.83;100632.47;5034355;28;20029;-68
2021/01/17 08:34:56;;;;;;;13.43;8.43;;;;;;;-2.06;55.53;100635.91;5031596;28;20053;-68
2021/01/17 08:37:22;;;;;;;20.13;11.37;;;;;;;-2.31;56.78;100638.75;5032617;28;20064;-68
2021/01/17 08:39:51;;;;;;;12.53;7.47;;;;;;;-2.43;56.74;100635.97;5034139;28;20037;-70
2021/01/17 08:42:27;;;;;;;14.98;9.30;;;;;;;-2.01;57.41;100629.63;5033628;28;20048;-70
2021/01/17 08:44:53;;;;;;;15.50;8.80;;;;;;;-1.89;57.18;100624.78;5031027;28;20502;-70
2021/01/17 08:47:22;;;;;;;14.57;7.87;;;;;;;-1.66;55.50;100622.66;5015644;28;20052;-69
2021/01/17 08:49:49;;;;;;;12.32;6.15;;;;;;;-1.88;55.01;100616.41;5032308;28;20025;-67
2021/01/17 08:52:34;;;;;;;13.80;6.60;;;;;;;-2.03;55.66;100621.00;5033785;28;20481;-69
2021/01/17 08:55:00;;;;;;;12.43;7.20;;;;;;;-2.15;55.07;100555.91;5033107;28;20044;-69
2021/01/17 08:57:41;;;;;;;13.07;6.87;;;;;;;-1.96;54.08;100628.38;5036262;28;20415;-69
2021/01/17 09:00:12;;;;;;;13.83;8.27;;;;;;;-1.87;54.67;100619.09;5028121;28;20618;-70
2021/01/17 09:02:38;;;;;;;12.77;7.20;;;;;;;-1.77;54.30;100584.47;5034124;28;20029;-70
2021/01/17 09:05:15;;;;;;;53.80;18.33;;;;;;;-1.58;54.43;100618.25;5033795;28;20040;-70
2021/01/17 09:07:42;;;;;;;15.23;8.07;;;;;;;-1.47;53.52;100612.47;5009551;28;20026;-70
2021/01/17 09:10:15;;;;;;;16.03;7.13;;;;;;;-1.37;53.71;100613.25;5033443;28;20051;-71
2021/01/17 09:12:40;;;;;;;399.73;112.10;;;;;;;-1.28;53.20;100624.19;5034468;28;20028;-70
2021/01/17 09:15:15;;;;;;;34.03;12.73;;;;;;;-1.21;52.14;100611.31;5033321;28;20096;-69
2021/01/17 09:17:55;;;;;;;13.33;7.80;;;;;;;-0.99;51.75;100610.59;4972532;28;20154;-71
2021/01/17 09:20:21;;;;;;;23.20;9.63;;;;;;;-0.83;50.99;100582.38;4957950;28;20074;-71
2021/01/17 09:22:49;;;;;;;14.93;8.70;;;;;;;-0.95;52.35;100601.63;4939600;28;20093;-70
2021/01/17 09:25:14;;;;;;;12.67;7.50;;;;;;;-1.04;52.89;100601.72;4972944;28;20046;-70
2021/01/17 09:27:40;;;;;;;15.87;8.80;;;;;;;-0.79;50.97;100592.00;4972242;28;20129;-70
2021/01/17 09:30:08;;;;;;;16.93;10.90;;;;;;;-0.64;51.60;100592.41;4972704;28;20031;-71
2021/01/17 09:32:35;;;;;;;10.70;7.23;;;;;;;-0.41;49.42;100596.88;4924114;28;20042;-71
2021/01/17 09:35:05;;;;;;;12.77;7.53;;;;;;;-0.50;49.46;100573.25;4972335;28;20113;-71
2021/01/17 09:37:33;;;;;;;12.17;6.70;;;;;;;-0.28;48.25;100595.34;4971658;28;20134;-71
2021/01/17 09:39:58;;;;;;;12.20;8.47;;;;;;;-0.57;49.80;100598.91;4972320;28;20035;-71
2021/01/17 09:42:26;;;;;;;11.13;6.70;;;;;;;-0.97;49.24;100596.44;4971459;28;20473;-72
2021/01/17 09:44:54;;;;;;;11.63;6.30;;;;;;;-0.88;50.69;100601.38;4972062;28;20144;-71
2021/01/17 09:47:21;;;;;;;11.40;6.70;;;;;;;-0.79;48.91;100575.94;4971984;28;20042;-71
2021/01/17 09:49:48;;;;;;;9.53;5.90;;;;;;;-1.27;49.68;100546.56;5016643;28;20044;-71
2021/01/17 09:52:16;;;;;;;10.10;6.00;;;;;;;-1.32;49.95;100567.31;5033437;28;20419;-71
2021/01/17 09:54:41;;;;;;;17.07;8.80;;;;;;;-1.20;50.33;100543.78;5032905;28;20446;-71
2021/01/17 09:57:19;;;;;;;12.73;6.40;;;;;;;-0.70;47.47;100561.47;5033166;28;20053;-71
2021/01/17 09:59:45;;;;;;;17.17;8.27;;;;;;;-0.29;49.84;100571.59;5032743;28;20037;-71
2021/01/17 10:02:11;;;;;;;14.87;8.60;;;;;;;-0.02;47.44;100561.94;5032679;28;20099;-71
2021/01/17 10:04:38;;;;;;;10.23;6.03;;;;;;;-0.45;47.76;100551.69;4997603;28;20049;-72
2021/01/17 10:07:04;;;;;;;9.67;6.03;;;;;;;-0.22;47.57;100570.47;5032911;28;20029;-71
2021/01/17 10:09:30;;;;;;;11.97;7.40;;;;;;;0.08;47.90;100561.03;5032689;28;20051;-71
2021/01/17 10:12:02;;;;;;;15.23;6.97;;;;;;;-0.39;48.13;100558.94;4997860;28;20046;-72
2021/01/17 10:14:30;;;;;;;11.40;6.73;;;;;;;-0.41;47.50;100556.28;5032509;28;20048;-71
2021/01/17 10:16:59;;;;;;;12.97;6.70;;;;;;;-0.35;48.63;100554.25;5032267;28;20029;-71
2021/01/17 10:19:29;;;;;;;11.77;6.90;;;;;;;-0.25;47.37;100558.44;5032336;28;20033;-71
2021/01/17 10:21:56;;;;;;;10.03;6.00;;;;;;;0.02;46.96;100550.38;4997103;28;20052;-71
2021/01/17 10:24:29;;;;;;;10.53;5.80;;;;;;;-0.07;45.97;100512.47;5032525;28;20034;-71
2021/01/17 10:26:56;;;;;;;13.47;7.77;;;;;;;-0.15;48.01;100542.28;5032275;28;20036;-70
2021/01/17 10:29:24;;;;;;;9.80;5.90;;;;;;;-0.38;45.53;100518.47;5030904;28;20547;-71
2021/01/17 10:31:55;;;;;;;12.97;6.07;;;;;;;-0.55;47.27;100552.63;5032259;28;20048;-71
2021/01/17 10:34:26;;;;;;;14.03;7.53;;;;;;;-0.48;47.64;100546.38;5031993;28;20030;-72
2021/01/17 10:36:56;;;;;;;10.43;6.43;;;;;;;-0.42;47.30;100546.03;5032219;28;20037;-71
2021/01/17 10:39:23;;;;;;;10.37;6.30;;;;;;;-0.67;47.49;100491.63;5032177;28;20025;-71
2021/01/17 10:41:52;;;;;;;9.03;5.23;;;;;;;-0.50;48.63;100537.75;5031421;28;20032;-71
2021/01/17 10:44:24;;;;;;;9.47;5.40;;;;;;;-0.26;46.36;100530.38;5031615;28;20518;-71
2021/01/17 10:47:09;;;;;;;15.43;8.23;;;;;;;-0.04;44.64;100531.38;5031562;28;20136;-71
2021/01/17 10:49:41;;;;;;;30.93;23.53;;;;;;;0.31;44.61;100522.22;5031489;28;20026;-72
2021/01/17 10:52:16;;;;;;;11.03;6.70;;;;;;;-0.46;41.35;100500.84;5031484;28;20523;-72
2021/01/17 10:54:42;;;;;;;16.20;8.97;;;;;;;-0.46;42.08;100532.19;5030811;28;20018;-71
2021/01/17 10:57:09;;;;;;;8.37;5.23;;;;;;;-0.53;43.16;100540.94;5031780;28;20025;-71
2021/01/17 10:59:35;;;;;;;7.83;4.30;;;;;;;-0.63;40.70;100533.34;5031501;28;20060;-71
2021/01/17 11:02:00;;;;;;;8.43;4.40;;;;;;;-0.45;41.78;100535.59;5031612;28;20105;-71
2021/01/17 11:04:37;;;;;;;10.80;5.73;;;;;;;-0.35;41.90;100526.34;5031327;28;20064;-71
2021/01/17 11:07:03;;;;;;;11.47;6.60;;;;;;;-0.05;40.65;100521.06;5031522;28;20124;-71
2021/01/17 11:09:29;;;;;;;8.47;5.10;;;;;;;0.41;43.96;100523.81;5031412;28;20033;-71
2021/01/17 11:11:55;;;;;;;78.50;23.90;;;;;;;0.53;42.78;100521.38;5031306;28;20025;-71
2021/01/17 11:14:30;;;;;;;7.60;4.57;;;;;;;0.23;43.55;100483.53;5031348;28;20028;-71
2021/01/17 11:16:56;;;;;;;55.90;17.40;;;;;;;0.48;42.05;100511.72;5031093;28;20029;-70
2021/01/17 11:19:39;;;;;;;8.97;4.17;;;;;;;0.27;41.57;100499.91;4978027;28;20037;-71
2021/01/17 11:22:08;;;;;;;8.17;3.73;;;;;;;-0.22;41.79;100517.19;5027916;28;20052;-71
2021/01/17 11:24:39;;;;;;;8.05;4.32;;;;;;;-0.20;42.14;100503.88;5025828;28;20913;-71
2021/01/17 11:27:13;;;;;;;8.43;3.57;;;;;;;-0.24;42.32;100529.72;5030980;28;20033;-72